METAR Data
IDs: Format: Raw Decoded Include TAF

Data at: 0207 UTC 25 Mar 2019

KIFA 250155Z AUTO 02006KT 10SM OVC029 07/06 A3013 RMK AO2 T00700060
KIFA 250135Z AUTO 04007KT 10SM OVC029 07/06 A3012 RMK AO2 T00700061
KIFA 250115Z AUTO 03008KT 10SM OVC029 07/06 A3011 RMK AO2 T00700063
KIFA 250055Z AUTO 03007KT 10SM OVC027 07/07 A3010 RMK AO2 T00700065
KIFA 250035Z AUTO 04009KT 10SM OVC025 07/07 A3009 RMK AO2 T00720068
KIFA 250015Z AUTO 04008KT 5SM DZ BKN004 OVC023 07/07 A3009 RMK AO2 T00730070
KIFA 242355Z AUTO 03008KT 5SM -RA OVC006 07/07 A3009 RMK AO2 T00740071 10076 20067
KIFA 242335Z AUTO 04008KT 5SM -RA OVC006 07/07 A3008 RMK AO2 T00740070
KIFA 242315Z AUTO 04007KT 7SM -DZ OVC004 08/07 A3007 RMK AO2 T00750071
KIFA 242255Z AUTO 04009KT 5SM -DZ OVC004 08/07 A3007 RMK AO2 T00750071
KIFA 242235Z AUTO 05010G15KT 7SM OVC004 08/07 A3006 RMK AO2 T00760074
KIFA 242215Z AUTO 04011KT 7SM OVC004 08/07 A3005 RMK AO2 T00760074
KIFA 242155Z AUTO 03007KT 4SM RA OVC004 08/07 A3005 RMK AO2 T00760074
KIFA 242135Z AUTO 03008KT 4SM BR OVC004 08/07 A3005 RMK AO2 T00750072
KIFA 242115Z AUTO 04009KT 3SM BR OVC004 07/07 A3004 RMK AO2 T00740072
KIFA 242055Z AUTO 04008KT 1 1/2SM BR OVC002 07/07 A3004 RMK AO2 T00730071
KIFA 242035Z AUTO 03008KT 1 3/4SM BR OVC002 07/07 A3004 RMK AO2 T00700068
KIFA 242015Z AUTO 03012G15KT 1 3/4SM BR OVC002 07/07 A3004 RMK AO2 T00680066
KIFA 241955Z AUTO 02012KT 1SM BR OVC002 07/07 A3003 RMK AO2 T00680066
KIFA 241935Z AUTO 02010KT 1SM BR OVC002 07/07 A3003 RMK AO2 T00670065
KIFA 241915Z AUTO 02009KT 2SM BR OVC002 07/07 A3003 RMK AO2 T00710070
KIFA 241855Z AUTO 06005KT 2SM BR OVC002 07/07 A3003 RMK AO2 T00710070
KIFA 241835Z AUTO 06005KT 2 1/2SM BR OVC002 07/07 A3003 RMK AO2 T00710070
KIFA 241815Z AUTO 05007KT 2 1/2SM BR OVC002 07/07 A3004 RMK AO2 T00700068
KIFA 241755Z AUTO 04006KT 2SM BR OVC002 07/07 A3004 RMK AO2 T00680067 10068 20046
KIFA 241735Z AUTO 05006KT 1SM BR OVC002 07/06 A3004 RMK AO2 T00650064
KIFA 241715Z AUTO 06006KT 1 1/4SM BR OVC002 06/06 A3004 RMK AO2 T00600060
KIFA 241655Z AUTO 04007KT 1 1/4SM -RA OVC002 06/06 A3004 RMK AO2 T00600057
KIFA 241635Z AUTO 06005KT 3/4SM UP OVC002 06/06 A3004 RMK AO2 T00600057
KIFA 241615Z AUTO 07005KT 3/4SM -RA OVC002 06/06 A3005 RMK AO2 T00560055
KIFA 241555Z AUTO 08004KT 3/4SM BR OVC002 06/06 A3004 RMK AO2 T00560055
KIFA 241535Z AUTO 07006KT 1 1/4SM BR OVC002 06/06 A3004 RMK AO2 T00560055
KIFA 241515Z AUTO 06006KT 1 1/4SM BR OVC002 06/06 A3003 RMK AO2 T00600058
KIFA 241455Z AUTO 07008KT 1 1/2SM -DZ OVC002 06/05 A3003 RMK AO2 T00550054
KIFA 241435Z AUTO 08007KT 1 1/2SM RA OVC002 05/05 A3003 RMK AO2 T00530051
KIFA 241415Z AUTO 09006KT 1 1/2SM -RA OVC002 05/05 A3004 RMK AO2 T00510050
KIFA 241355Z AUTO 09007KT 1 1/2SM -DZ OVC002 05/05 A3004 RMK AO2 T00500047
KIFA 241335Z AUTO 08007KT 1 1/4SM DZ OVC002 05/05 A3004 RMK AO2 T00470045
KIFA 241315Z AUTO 07007KT 1 1/4SM DZ OVC002 05/05 A3004 RMK AO2 T00470045
KIFA 241255Z AUTO 07008KT 1 1/2SM -DZ OVC002 05/05 A3004 RMK AO2 T00460045
KIFA 241235Z AUTO 06007KT 2SM DZ OVC002 05/05 A3003 RMK AO2 T00460045
KIFA 241215Z AUTO 07007KT 2 1/2SM -DZ OVC004 05/05 A3003 RMK AO2 T00470045
KIFA 241155Z AUTO 07007KT 2 1/2SM RA OVC004 05/05 A3003 RMK AO2 P0001 60008 70008 T00470045 10065 20046
KIFA 241135Z AUTO 07007KT 2 1/2SM BR OVC004 05/05 A3003 RMK AO2 T00480045
KIFA 241115Z AUTO 07006KT 2SM BR OVC004 05/05 A3003 RMK AO2 T00470045
KIFA 241055Z AUTO 08006KT 1 3/4SM BR OVC004 05/04 A3003 RMK AO2 T00460043
KIFA 241035Z AUTO 07006KT 1 3/4SM BR OVC004 05/04 A3003 RMK AO2 T00460043
KIFA 241015Z AUTO 07006KT 1 1/2SM DZ OVC004 05/04 A3003 RMK AO2 T00460043
KIFA 240955Z AUTO 07006KT 2 1/2SM RA BKN008 BKN011 OVC017 05/04 A3004 RMK AO2 T00470043
KIFA 240935Z AUTO 07005KT 5SM BR OVC017 05/04 A3004 RMK AO2 T00470042
KIFA 240915Z AUTO 06006KT 5SM -RA OVC019 05/04 A3004 RMK AO2 T00480042
KIFA 240855Z AUTO 06005KT 7SM -RA OVC019 05/05 A3005 RMK AO2 P0005 60007 T00510045
KIFA 240835Z AUTO 07007KT 5SM RA OVC019 05/05 A3006 RMK AO2 P0003 T00530045
KIFA 240815Z AUTO 08007KT 4SM RA OVC019 05/04 A3006 RMK AO2 P0001 T00520043
KIFA 240755Z AUTO 10004KT 7SM RA OVC021 05/04 A3007 RMK AO2 T00510040
KIFA 240735Z AUTO 10005KT 10SM -DZ BKN023 BKN029 OVC055 05/04 A3007 RMK AO2 T00530040
KIFA 240715Z AUTO 10006KT 10SM -RA SCT029 BKN055 OVC065 06/04 A3007 RMK AO2 T00550038
KIFA 240655Z AUTO 10006KT 7SM RA OVC027 05/04 A3007 RMK AO2 P0001 T00520036
KIFA 240635Z AUTO 10006KT 10SM RA SCT027 BKN042 OVC050 06/04 A3007 RMK AO2 T00560035
KIFA 240615Z AUTO 10005KT 10SM BKN033 BKN042 OVC050 06/03 A3007 RMK AO2 T00630030
KIFA 240555Z AUTO 09006KT 10SM BKN029 BKN060 OVC070 07/03 A3007 RMK AO2 T00650027 10090 20058 401271024
KIFA 240535Z AUTO 09006KT 10SM OVC070 06/03 A3008 RMK AO2 T00620027
KIFA 240515Z AUTO 10005KT 10SM OVC070 06/03 A3008 RMK AO2 T00580031
KIFA 240455Z AUTO 10004KT 10SM OVC070 06/03 A3009 RMK AO2 T00620028
KIFA 240435Z AUTO 10006KT 10SM OVC070 06/03 A3009 RMK AO2 T00580031
KIFA 240415Z AUTO 10006KT 10SM BKN070 BKN110 06/03 A3009 RMK AO2 T00580031
KIFA 240355Z AUTO 10006KT 10SM SCT080 BKN110 06/03 A3010 RMK AO2 T00600033
KIFA 240335Z AUTO 10005KT 10SM BKN080 07/03 A3010 RMK AO2 T00650033
KIFA 240315Z AUTO 10006KT 10SM OVC090 06/04 A3011 RMK AO2 T00610035
KIFA 240255Z AUTO 11005KT 10SM OVC090 06/04 A3011 RMK AO2 T00640036
KIFA 240235Z AUTO 10005KT 10SM OVC090 07/04 A3011 RMK AO2 T00660039
KIFA 240215Z AUTO 10006KT 10SM OVC090 07/04 A3011 RMK AO2 T00670039
KIFA 240155Z AUTO 10005KT 10SM OVC090 07/04 A3011 RMK AO2 T00710041
KIFA 240135Z AUTO 10006KT 10SM OVC090 07/04 A3011 RMK AO2 T00700040
KIFA 240115Z AUTO 11006KT 10SM OVC090 07/04 A3011 RMK AO2 T00740040
KIFA 240055Z AUTO 10005KT 10SM OVC090 08/04 A3011 RMK AO2 T00760041
KIFA 240035Z AUTO 09004KT 10SM OVC090 08/04 A3011 RMK AO2 T00810041
KIFA 240015Z AUTO 10005KT 10SM OVC100 09/04 A3011 RMK AO2 T00870039
KIFA 232355Z AUTO 10006KT 10SM OVC100 09/04 A3012 RMK AO2 T00900041 10127 20090
KIFA 232335Z AUTO 09006KT 10SM OVC100 10/04 A3012 RMK AO2 T00950041
KIFA 232315Z AUTO 10007KT 10SM BKN110 10/05 A3012 RMK AO2 T01010045
KIFA 232255Z AUTO 10007KT 10SM OVC110 11/05 A3012 RMK AO2 T01060047
KIFA 232235Z AUTO 12010KT 10SM BKN110 11/03 A3013 RMK AO2 T01050034
KIFA 232215Z AUTO 11011KT 10SM BKN120 11/04 A3013 RMK AO2 T01080036
KIFA 232155Z AUTO 11009KT 10SM SCT120 11/03 A3014 RMK AO2 T01060034
KIFA 232135Z AUTO 11009KT 10SM SCT100 SCT120 11/04 A3015 RMK AO2 T01070039
KIFA 232115Z AUTO 14007KT 10SM OVC100 11/04 A3016 RMK AO2 T01050035
KIFA 232055Z AUTO 16008KT 10SM BKN100 11/03 A3016 RMK AO2 T01050033
KIFA 232035Z AUTO 14009KT 10SM SCT100 12/03 A3016 RMK AO2 T01150030
KIFA 232015Z AUTO 12004KT 10SM SCT120 11/03 A3016 RMK AO2 T01140032
KIFA 231955Z AUTO 14007KT 10SM CLR 11/03 A3016 RMK AO2 T01100028
KIFA 231935Z AUTO 14007KT 10SM CLR 11/03 A3018 RMK AO2 T01140025
KIFA 231915Z AUTO 18007KT 10SM CLR 13/02 A3019 RMK AO2 T01260024
KIFA 231855Z AUTO 15009KT 10SM CLR 12/02 A3019 RMK AO2 T01230024
KIFA 231835Z AUTO 15009KT 10SM CLR 12/03 A3020 RMK AO2 T01220027
KIFA 231815Z AUTO 16009KT 10SM CLR 12/02 A3020 RMK AO2 T01170023
KIFA 231755Z AUTO 14008KT 10SM CLR 11/03 A3020 RMK AO2 T01120025 10112 21024
KIFA 231735Z AUTO 14008KT 120V180 10SM CLR 11/02 A3020 RMK AO2 T01050018
KIFA 231715Z AUTO 15009KT 10SM CLR 10/02 A3021 RMK AO2 T01020018
KIFA 231655Z AUTO 15010KT 10SM CLR 10/02 A3022 RMK AO2 T00950024
KIFA 231635Z AUTO 14007KT 10SM CLR 09/02 A3022 RMK AO2 T00880023
KIFA 231615Z AUTO 13006KT 10SM CLR 08/02 A3022 RMK AO2 T00800022
KIFA 231555Z AUTO 13007KT 10SM CLR 07/02 A3023 RMK AO2 T00690015
KIFA 231535Z AUTO 12007KT 10SM CLR 07/02 A3023 RMK AO2 T00650016
KIFA 231515Z AUTO 13007KT 10SM CLR 06/01 A3023 RMK AO2 T00580008
KIFA 231455Z AUTO 14007KT 10SM CLR 05/00 A3024 RMK AO2 T00500000
KIFA 231435Z AUTO 13006KT 10SM CLR 04/00 A3024 RMK AO2 T00420001
KIFA 231415Z AUTO 12003KT 10SM CLR 03/00 A3024 RMK AO2 T00270000